Time;durP1;ratioP1;P1;durP2;ratioP2;P2;SDS_P1;SDS_P2;PMS_P1;PMS_P2;Temp;Humidity;BMP_temperature;BMP_pressure;BME280_temperature;BME280_humidity;BME280_pressure;Samples;Min_cycle;Max_cycle;Signal;HPM_P1;HPM_P2
2023/03/26 00:00:25;;;;;;;5.18;1.85;;;8.80;99.90;;;;;;2083681;28;20064;-75
2023/03/26 00:01:28;;;;;;;3.67;1.70;;;8.70;99.90;;;;;;2091250;28;20029;-76
2023/03/26 00:02:28;;;;;;;4.50;1.90;;;8.70;99.90;;;;;;2095513;28;20120;-75
2023/03/26 00:03:30;;;;;;;5.03;1.95;;;8.70;99.90;;;;;;2091568;28;20039;-76
2023/03/26 00:04:32;;;;;;;5.43;2.08;;;8.70;99.90;;;;;;2091337;28;20036;-75
2023/03/26 00:05:33;;;;;;;3.83;1.83;;;8.70;99.90;;;;;;2093672;28;20020;-76
2023/03/26 00:06:37;;;;;;;4.43;1.95;;;8.60;99.90;;;;;;2094111;28;20032;-76
2023/03/26 00:07:38;;;;;;;6.13;1.90;;;8.60;99.90;;;;;;2095049;28;20127;-75
2023/03/26 00:08:41;;;;;;;6.03;2.10;;;8.60;99.90;;;;;;2082404;28;20060;-75
2023/03/26 00:09:41;;;;;;;5.70;1.95;;;8.60;99.90;;;;;;2083793;28;20079;-75
2023/03/26 00:10:43;;;;;;;4.38;2.08;;;8.70;99.90;;;;;;2086711;28;20151;-75
2023/03/26 00:11:45;;;;;;;5.03;2.10;;;8.70;99.90;;;;;;2086549;28;20075;-75
2023/03/26 00:12:45;;;;;;;7.03;2.15;;;8.70;99.90;;;;;;2095819;28;20032;-75
2023/03/26 00:13:47;;;;;;;5.15;2.10;;;8.70;99.90;;;;;;2096101;28;20027;-75
2023/03/26 00:14:47;;;;;;;4.78;2.10;;;8.70;99.90;;;;;;2094178;28;20507;-75
2023/03/26 00:15:48;;;;;;;5.78;2.33;;;8.70;99.90;;;;;;2093373;28;20078;-75
2023/03/26 00:16:48;;;;;;;4.22;2.00;;;8.70;99.90;;;;;;2091907;28;20020;-75
2023/03/26 00:17:49;;;;;;;5.95;1.92;;;8.70;99.90;;;;;;2096635;28;20021;-74
2023/03/26 00:18:50;;;;;;;7.22;2.22;;;8.70;99.90;;;;;;2086571;28;20064;-73
2023/03/26 00:19:52;;;;;;;6.15;2.10;;;8.70;99.90;;;;;;2086731;28;20033;-74
2023/03/26 00:20:52;;;;;;;5.00;2.00;;;8.80;99.90;;;;;;2084191;28;20052;-74
2023/03/26 00:21:56;;;;;;;6.50;2.03;;;8.80;99.90;;;;;;2087714;28;20295;-74
2023/03/26 00:23:00;;;;;;;5.07;2.10;;;8.80;99.90;;;;;;2091603;28;20464;-74
2023/03/26 00:24:04;;;;;;;5.15;2.10;;;8.80;99.90;;;;;;2094387;28;20403;-74
2023/03/26 00:25:06;;;;;;;4.88;1.80;;;8.80;99.90;;;;;;2085437;28;20492;-74
2023/03/26 00:26:11;;;;;;;6.93;1.90;;;8.90;99.90;;;;;;2085098;28;20263;-75
2023/03/26 00:27:13;;;;;;;7.10;2.03;;;8.90;99.90;;;;;;2080982;28;20308;-74
2023/03/26 00:28:15;;;;;;;5.38;2.03;;;8.90;99.90;;;;;;2084955;28;20029;-75
2023/03/26 00:29:17;;;;;;;5.10;2.15;;;8.90;99.90;;;;;;2088089;28;20571;-76
2023/03/26 00:30:18;;;;;;;5.00;2.03;;;9.00;99.90;;;;;;2095468;28;20392;-75
2023/03/26 00:31:19;;;;;;;5.32;2.10;;;9.00;99.90;;;;;;2096184;28;20028;-74
2023/03/26 00:32:20;;;;;;;6.22;2.00;;;9.00;99.90;;;;;;2078710;28;20029;-75
2023/03/26 00:33:21;;;;;;;4.95;1.90;;;9.00;99.90;;;;;;2075044;28;20033;-74
2023/03/26 00:34:21;;;;;;;4.15;1.63;;;9.00;99.90;;;;;;2083235;28;20708;-74
2023/03/26 00:35:22;;;;;;;3.53;1.83;;;9.00;99.90;;;;;;2086783;28;20096;-74
2023/03/26 00:36:25;;;;;;;4.75;2.03;;;9.00;99.90;;;;;;2076103;28;20056;-74
2023/03/26 00:37:25;;;;;;;5.60;2.20;;;9.00;99.90;;;;;;2085657;28;20120;-74
2023/03/26 00:38:27;;;;;;;5.57;2.00;;;9.00;99.90;;;;;;2076789;28;20039;-75
2023/03/26 00:39:32;;;;;;;7.07;2.00;;;9.00;99.90;;;;;;2085261;28;20886;-73
2023/03/26 00:40:35;;;;;;;6.10;1.92;;;9.00;99.90;;;;;;2087287;28;20028;-74
2023/03/26 00:41:41;;;;;;;5.05;2.00;;;9.00;99.90;;;;;;2070787;28;20101;-74
2023/03/26 00:42:42;;;;;;;4.70;1.77;;;8.90;99.90;;;;;;2086516;28;20033;-75
2023/03/26 00:43:47;;;;;;;2.65;1.88;;;8.90;99.90;;;;;;2096675;28;20036;-74
2023/03/26 00:44:50;;;;;;;4.95;2.15;;;8.90;99.90;;;;;;2086254;28;20078;-75
2023/03/26 00:45:53;;;;;;;5.80;1.90;;;8.90;99.90;;;;;;2086536;28;20017;-74
2023/03/26 00:46:53;;;;;;;6.63;1.90;;;8.90;99.90;;;;;;2086344;28;20044;-74
2023/03/26 00:47:54;;;;;;;5.20;1.80;;;8.90;99.90;;;;;;2082573;28;20029;-74
2023/03/26 00:48:57;;;;;;;3.58;1.65;;;8.90;99.90;;;;;;2096483;28;20032;-74
2023/03/26 00:49:58;;;;;;;3.05;1.52;;;8.90;99.90;;;;;;2085398;28;20328;-75
2023/03/26 00:51:00;;;;;;;4.07;1.60;;;8.90;99.90;;;;;;2085535;28;20031;-75
2023/03/26 00:52:01;;;;;;;4.80;1.70;;;8.90;99.90;;;;;;2085264;28;20012;-74
2023/03/26 00:53:02;;;;;;;3.35;1.67;;;8.90;99.90;;;;;;2087798;28;20031;-74
2023/03/26 00:54:03;;;;;;;5.35;1.65;;;8.90;99.90;;;;;;2098599;28;20529;-74
2023/03/26 00:55:04;;;;;;;4.55;1.60;;;9.00;99.90;;;;;;2083566;28;20103;-74
2023/03/26 00:56:05;;;;;;;3.50;1.67;;;8.90;99.90;;;;;;2085372;28;20102;-75
2023/03/26 00:57:09;;;;;;;3.30;1.58;;;8.90;99.90;;;;;;2082312;28;20032;-75
2023/03/26 00:58:10;;;;;;;4.88;1.80;;;8.90;99.90;;;;;;2087699;28;20028;-75
2023/03/26 00:59:11;;;;;;;3.08;1.67;;;8.90;99.90;;;;;;2093953;28;20025;-75
2023/03/26 01:00:15;;;;;;;4.75;1.70;;;8.90;99.90;;;;;;2085114;28;20020;-75
2023/03/26 01:01:25;;;;;;;5.68;1.90;;;8.90;99.90;;;;;;2086435;28;20177;-76
2023/03/26 01:02:28;;;;;;;4.40;1.75;;;8.90;99.90;;;;;;2086861;28;20033;-75
2023/03/26 01:03:34;;;;;;;6.65;2.20;;;8.90;99.90;;;;;;2079111;28;20356;-74
2023/03/26 01:04:36;;;;;;;4.78;2.08;;;8.90;99.90;;;;;;2087628;28;20063;-73
2023/03/26 01:05:45;;;;;;;5.28;1.85;;;8.90;99.90;;;;;;2097762;28;20028;-75
2023/03/26 01:06:46;;;;;;;4.72;1.80;;;8.90;99.90;;;;;;2080294;28;20274;-75
2023/03/26 01:07:47;;;;;;;3.92;1.70;;;8.90;99.90;;;;;;2088899;28;20072;-74
2023/03/26 01:08:51;;;;;;;5.22;1.80;;;8.90;99.90;;;;;;2084611;28;20450;-75
2023/03/26 01:09:54;;;;;;;4.18;1.90;;;8.90;99.90;;;;;;2096179;28;20487;-75
2023/03/26 01:11:01;;;;;;;3.60;1.65;;;8.90;99.90;;;;;;2092344;28;20017;-75
2023/03/26 01:12:07;;;;;;;4.13;1.63;;;8.90;99.90;;;;;;2087705;28;20029;-75
2023/03/26 01:13:09;;;;;;;3.53;1.52;;;8.90;99.90;;;;;;2090034;28;20028;-76
2023/03/26 01:14:22;;;;;;;3.30;1.70;;;8.90;99.90;;;;;;2099994;28;20031;-73
2023/03/26 01:15:28;;;;;;;4.32;1.73;;;8.90;99.90;;;;;;2096193;28;20517;-74
2023/03/26 01:16:57;;;;;;;3.78;1.80;;;8.90;99.90;;;;;;2093653;28;20109;-75
2023/03/26 01:17:58;;;;;;;4.20;1.70;;;8.90;99.90;;;;;;2092945;28;20094;-75
2023/03/26 01:18:59;;;;;;;3.17;1.73;;;8.90;99.90;;;;;;2096908;28;20493;-75
2023/03/26 01:20:14;;;;;;;5.50;1.90;;;8.90;99.90;;;;;;2076990;28;20033;-73
2023/03/26 01:21:27;;;;;;;5.25;1.63;;;8.80;99.90;;;;;;2081369;28;20029;-75
2023/03/26 01:22:27;;;;;;;4.05;1.70;;;8.80;99.90;;;;;;2085643;28;20424;-75
2023/03/26 01:23:37;;;;;;;3.95;1.70;;;8.80;99.90;;;;;;2096910;28;20039;-75
2023/03/26 01:24:39;;;;;;;4.73;1.90;;;8.80;99.90;;;;;;2087787;28;20039;-75
2023/03/26 01:25:47;;;;;;;4.57;1.85;;;8.80;99.90;;;;;;2089289;28;20289;-74
2023/03/26 01:27:06;;;;;;;3.83;1.65;;;8.80;99.90;;;;;;2077261;28;20498;-76
2023/03/26 01:28:08;;;;;;;5.15;1.80;;;8.80;99.90;;;;;;2079037;28;20040;-74
2023/03/26 01:29:21;;;;;;;5.03;1.52;;;8.80;99.90;;;;;;2089094;28;20495;-74
2023/03/26 01:30:36;;;;;;;3.67;1.75;;;8.80;99.90;;;;;;2084534;28;20387;-75
2023/03/26 01:31:55;;;;;;;5.63;1.70;;;8.80;99.90;;;;;;2081166;28;20058;-74
2023/03/26 01:33:28;;;;;;;3.33;1.60;;;8.80;99.90;;;;;;2085767;28;20025;-74
2023/03/26 01:35:03;;;;;;;3.75;1.75;;;8.70;99.90;;;;;;2091380;28;20554;-74
2023/03/26 01:36:12;;;;;;;4.35;1.70;;;8.70;99.90;;;;;;2084303;28;20156;-74
2023/03/26 01:37:38;;;;;;;5.13;1.60;;;8.70;99.90;;;;;;2082165;28;20091;-75
2023/03/26 01:39:18;;;;;;;4.70;1.60;;;8.70;99.90;;;;;;2091493;28;20126;-73
2023/03/26 01:40:41;;;;;;;5.93;1.92;;;8.70;99.90;;;;;;2093627;28;20044;-76
2023/03/26 01:41:52;;;;;;;3.65;1.63;;;8.70;99.90;;;;;;2094833;28;20029;-74
2023/03/26 01:43:04;;;;;;;3.92;1.77;;;8.70;99.90;;;;;;2085562;28;20023;-74
2023/03/26 01:44:23;;;;;;;4.80;1.70;;;8.70;99.90;;;;;;2080571;28;20025;-74
2023/03/26 01:45:29;;;;;;;5.50;1.77;;;8.70;99.90;;;;;;2096498;28;20377;-74
2023/03/26 01:46:35;;;;;;;4.13;1.98;;;8.80;99.90;;;;;;2096686;28;20073;-74
2023/03/26 01:47:38;;;;;;;4.38;1.77;;;8.70;99.90;;;;;;2096494;28;20247;-73
2023/03/26 01:48:42;;;;;;;1.95;1.50;;;8.70;99.90;;;;;;2095910;28;20020;-74
2023/03/26 01:49:43;;;;;;;5.65;1.73;;;8.70;99.90;;;;;;2080939;28;20024;-74
2023/03/26 01:50:43;;;;;;;3.65;1.58;;;8.70;99.90;;;;;;2077950;28;20152;-74
2023/03/26 01:51:44;;;;;;;3.90;1.40;;;8.70;99.90;;;;;;2090934;28;20036;-75
2023/03/26 01:52:45;;;;;;;5.47;1.52;;;8.70;99.90;;;;;;2086224;28;20567;-75
2023/03/26 01:53:47;;;;;;;3.40;1.63;;;8.70;99.90;;;;;;2096371;28;20495;-74
2023/03/26 01:54:47;;;;;;;5.18;1.65;;;8.60;99.90;;;;;;2096483;28;20093;-74
2023/03/26 01:56:25;;;;;;;3.08;1.50;;;8.60;99.90;;;;;;2086991;28;20032;-74
2023/03/26 01:57:35;;;;;;;3.08;1.70;;;8.60;99.90;;;;;;2090203;28;20085;-74
2023/03/26 01:59:18;;;;;;;5.20;1.33;;;8.50;99.90;;;;;;2094922;28;20044;-74
2023/03/26 02:00:28;;;;;;;3.33;1.50;;;8.50;99.90;;;;;;2097439;28;20028;-73
2023/03/26 02:01:31;;;;;;;3.22;1.55;;;8.50;99.90;;;;;;2096350;28;20040;-74
2023/03/26 02:02:46;;;;;;;3.50;1.58;;;8.40;99.90;;;;;;2087576;28;20036;-74
2023/03/26 02:04:01;;;;;;;4.53;1.65;;;8.50;99.90;;;;;;2089669;28;20029;-73
2023/03/26 02:05:16;;;;;;;2.75;1.50;;;8.40;99.90;;;;;;2092234;28;20514;-76
2023/03/26 02:06:24;;;;;;;3.78;1.52;;;8.40;99.90;;;;;;2083070;28;20029;-69
2023/03/26 02:07:49;;;;;;;2.95;1.77;;;8.40;99.90;;;;;;2083570;28;20461;-74
2023/03/26 02:08:59;;;;;;;4.63;1.48;;;8.30;99.90;;;;;;2081459;28;20049;-73
2023/03/26 02:10:09;;;;;;;3.30;1.60;;;8.40;99.90;;;;;;2077666;28;20343;-74
2023/03/26 02:11:14;;;;;;;4.13;1.60;;;8.30;99.90;;;;;;2087337;28;20508;-74
2023/03/26 02:12:16;;;;;;;2.80;1.38;;;8.30;99.90;;;;;;2093925;28;20060;-74
2023/03/26 02:13:16;;;;;;;2.88;1.80;;;8.30;99.90;;;;;;2077533;28;20021;-74
2023/03/26 02:14:17;;;;;;;2.75;1.42;;;8.30;99.90;;;;;;2080148;28;20067;-73
2023/03/26 02:15:18;;;;;;;3.17;1.55;;;8.30;99.90;;;;;;2095976;28;20282;-74
2023/03/26 02:16:19;;;;;;;3.50;1.60;;;8.30;99.90;;;;;;2087081;28;20036;-73
2023/03/26 02:17:23;;;;;;;3.55;1.60;;;8.20;99.90;;;;;;2087901;28;20025;-74
2023/03/26 02:18:24;;;;;;;3.55;1.77;;;8.20;99.90;;;;;;2097101;28;20435;-73
2023/03/26 02:19:24;;;;;;;1.67;1.50;;;8.30;99.90;;;;;;2086843;28;20036;-75
2023/03/26 02:20:29;;;;;;;2.72;1.38;;;8.20;99.90;;;;;;2079139;28;20029;-76
2023/03/26 02:21:32;;;;;;;4.72;1.70;;;8.20;99.90;;;;;;2088509;28;20059;-74
2023/03/26 02:22:39;;;;;;;3.22;1.60;;;8.20;99.90;;;;;;2078472;28;20056;-74
2023/03/26 02:23:45;;;;;;;2.38;1.55;;;8.20;99.90;;;;;;2087152;28;20059;-74
2023/03/26 02:24:46;;;;;;;3.58;1.73;;;8.20;99.90;;;;;;2086487;28;22612;-76
2023/03/26 02:25:47;;;;;;;3.58;1.52;;;8.20;99.90;;;;;;2094655;28;20531;-76
2023/03/26 02:26:47;;;;;;;3.45;1.50;;;8.20;99.90;;;;;;2086359;28;20626;-75
2023/03/26 02:27:49;;;;;;;2.67;1.60;;;8.20;99.90;;;;;;2088232;28;20063;-76
2023/03/26 02:28:51;;;;;;;4.10;1.88;;;8.20;99.90;;;;;;2101655;28;20025;-74
2023/03/26 02:29:52;;;;;;;3.28;1.60;;;8.20;99.90;;;;;;2088327;28;20044;-75
2023/03/26 02:30:56;;;;;;;2.22;1.48;;;8.20;99.90;;;;;;2089243;28;20029;-74
2023/03/26 02:31:58;;;;;;;3.97;1.70;;;8.20;99.90;;;;;;2087392;28;20059;-74
2023/03/26 02:32:59;;;;;;;3.33;1.50;;;8.20;99.90;;;;;;2079905;28;20082;-74
2023/03/26 02:34:04;;;;;;;3.47;1.75;;;8.20;99.90;;;;;;2078011;28;20032;-74
2023/03/26 02:35:08;;;;;;;2.97;1.60;;;8.20;99.90;;;;;;2085814;28;20029;-75
2023/03/26 02:36:12;;;;;;;5.80;1.90;;;8.20;99.90;;;;;;2069275;28;20029;-75
2023/03/26 02:37:17;;;;;;;5.90;2.00;;;8.20;99.90;;;;;;2070123;28;20384;-74
2023/03/26 02:38:19;;;;;;;2.95;1.65;;;8.20;99.90;;;;;;2077750;28;20109;-75
2023/03/26 02:39:20;;;;;;;3.35;1.55;;;8.20;99.90;;;;;;2077582;28;20041;-75
2023/03/26 02:40:29;;;;;;;3.53;1.80;;;8.20;99.90;;;;;;2078629;28;20030;-75
2023/03/26 02:41:31;;;;;;;4.53;1.90;;;8.20;99.90;;;;;;2088656;28;20068;-76
2023/03/26 02:42:39;;;;;;;5.35;2.00;;;8.10;99.90;;;;;;2076302;28;20562;-76
2023/03/26 02:43:40;;;;;;;3.80;1.80;;;8.10;99.90;;;;;;2072004;28;20111;-74
2023/03/26 02:44:44;;;;;;;2.72;1.60;;;8.10;99.90;;;;;;2074821;28;20057;-75
2023/03/26 02:46:05;;;;;;;4.85;1.70;;;8.10;99.90;;;;;;2082752;28;20090;-75
2023/03/26 02:47:32;;;;;;;4.18;1.88;;;8.10;99.90;;;;;;2087292;28;20047;-76
2023/03/26 02:49:05;;;;;;;3.15;1.67;;;8.10;99.90;;;;;;2097502;28;20039;-74
2023/03/26 02:50:07;;;;;;;3.53;1.85;;;8.10;99.90;;;;;;2085519;28;20459;-75
2023/03/26 02:51:27;;;;;;;5.65;3.63;;;8.10;99.90;;;;;;2077499;28;20075;-75
2023/03/26 02:52:44;;;;;;;4.45;1.70;;;8.10;99.90;;;;;;2080359;28;20036;-75
2023/03/26 02:53:44;;;;;;;6.63;2.05;;;8.10;99.90;;;;;;2082546;28;20496;-75
2023/03/26 02:55:03;;;;;;;4.20;1.60;;;8.10;99.90;;;;;;2081367;28;20095;-75
2023/03/26 02:56:05;;;;;;;4.38;1.88;;;8.10;99.90;;;;;;2078708;28;20029;-76
2023/03/26 02:57:14;;;;;;;4.53;1.75;;;8.10;99.90;;;;;;2085186;28;20044;-75
2023/03/26 02:58:33;;;;;;;3.20;1.80;;;8.20;99.90;;;;;;2089751;28;20544;-75
2023/03/26 02:59:34;;;;;;;3.45;1.70;;;8.20;99.90;;;;;;2087524;28;20033;-74
2023/03/26 03:00:57;;;;;;;3.58;1.80;;;8.20;99.90;;;;;;2081039;28;20123;-74
2023/03/26 03:02:04;;;;;;;2.72;1.60;;;8.20;99.90;;;;;;2084166;28;20543;-74
2023/03/26 03:03:08;;;;;;;2.50;1.60;;;8.20;99.90;;;;;;2079522;28;20029;-75
2023/03/26 03:04:27;;;;;;;2.92;1.70;;;8.20;99.90;;;;;;2083100;28;20044;-75
2023/03/26 03:05:30;;;;;;;5.60;1.70;;;8.20;99.90;;;;;;2087208;28;20544;-74
2023/03/26 03:06:46;;;;;;;5.28;1.90;;;8.20;99.90;;;;;;2082253;28;20029;-74
2023/03/26 03:07:47;;;;;;;2.85;1.65;;;8.30;99.90;;;;;;2078750;28;20407;-74
2023/03/26 03:08:47;;;;;;;4.55;1.70;;;8.20;99.90;;;;;;2073934;28;20044;-74
2023/03/26 03:09:49;;;;;;;3.13;1.75;;;8.20;99.90;;;;;;2078875;28;20492;-74
2023/03/26 03:11:24;;;;;;;2.30;1.55;;;8.20;99.90;;;;;;2082515;28;20353;-75
2023/03/26 03:12:25;;;;;;;3.28;1.52;;;8.30;99.90;;;;;;2081843;28;20515;-74
2023/03/26 03:13:27;;;;;;;5.03;1.63;;;8.20;99.90;;;;;;2080071;28;20520;-74
2023/03/26 03:14:28;;;;;;;3.88;1.73;;;8.30;99.90;;;;;;2086950;28;20135;-75
2023/03/26 03:15:28;;;;;;;3.22;1.58;;;8.20;99.90;;;;;;2080248;28;20163;-75
2023/03/26 03:16:29;;;;;;;3.55;1.80;;;8.30;99.90;;;;;;2086793;28;20036;-74
2023/03/26 03:17:34;;;;;;;5.10;1.80;;;8.20;99.90;;;;;;2088205;28;20031;-75
2023/03/26 03:18:35;;;;;;;3.55;1.55;;;8.30;99.90;;;;;;2077734;28;20056;-75
2023/03/26 03:19:36;;;;;;;2.85;1.70;;;8.20;99.90;;;;;;2078107;28;20063;-75
2023/03/26 03:20:37;;;;;;;3.40;1.55;;;8.20;99.90;;;;;;2077634;28;20040;-75
2023/03/26 03:21:40;;;;;;;3.83;1.73;;;8.20;99.90;;;;;;2085555;28;20036;-75
2023/03/26 03:22:41;;;;;;;2.70;1.70;;;8.20;99.90;;;;;;2089974;28;20020;-74
2023/03/26 03:23:42;;;;;;;3.10;1.60;;;8.20;99.90;;;;;;2086867;28;20064;-74
2023/03/26 03:24:46;;;;;;;5.93;1.83;;;8.20;99.90;;;;;;2086917;28;20032;-74
2023/03/26 03:25:49;;;;;;;3.28;1.60;;;8.20;99.90;;;;;;2078576;28;20067;-74
2023/03/26 03:26:53;;;;;;;3.08;1.55;;;8.20;99.90;;;;;;2086696;28;20055;-74
2023/03/26 03:28:08;;;;;;;2.58;1.70;;;8.20;99.90;;;;;;2080325;28;20032;-74
2023/03/26 03:29:09;;;;;;;4.28;1.90;;;8.10;99.90;;;;;;2078135;28;20116;-74
2023/03/26 03:30:11;;;;;;;2.33;1.50;;;8.10;99.90;;;;;;2074677;28;20075;-74
2023/03/26 03:31:32;;;;;;;3.08;1.70;;;8.10;99.90;;;;;;2082237;28;20420;-74
2023/03/26 03:32:37;;;;;;;3.15;1.80;;;8.10;99.90;;;;;;2095379;28;20392;-74
2023/03/26 03:33:41;;;;;;;3.95;1.65;;;8.10;99.90;;;;;;2095818;28;20051;-73
2023/03/26 03:34:42;;;;;;;5.85;1.80;;;8.10;99.90;;;;;;2088242;28;20660;-75
2023/03/26 03:35:44;;;;;;;3.20;1.70;;;8.10;99.90;;;;;;2085005;28;20029;-75
2023/03/26 03:36:47;;;;;;;4.28;1.90;;;8.10;99.90;;;;;;2076047;28;20021;-75
2023/03/26 03:38:01;;;;;;;4.55;1.48;;;8.10;99.90;;;;;;2069209;28;20481;-75
2023/03/26 03:39:06;;;;;;;3.00;1.70;;;8.10;99.90;;;;;;2077584;28;20460;-74
2023/03/26 03:40:09;;;;;;;4.47;1.80;;;8.10;99.90;;;;;;2074765;28;20047;-75
2023/03/26 03:41:11;;;;;;;4.03;1.80;;;8.10;99.90;;;;;;2076062;28;20052;-74
2023/03/26 03:42:14;;;;;;;3.88;1.80;;;8.10;99.90;;;;;;2077553;28;20025;-77
2023/03/26 03:43:15;;;;;;;4.55;1.90;;;8.00;99.90;;;;;;2086093;28;20388;-75
2023/03/26 03:44:28;;;;;;;4.05;1.85;;;8.00;99.90;;;;;;2085602;28;20060;-68
2023/03/26 03:45:29;;;;;;;6.07;1.90;;;8.10;99.90;;;;;;2082084;28;20527;-73
2023/03/26 03:46:42;;;;;;;6.05;2.17;;;8.00;99.90;;;;;;2076865;28;20061;-73
2023/03/26 03:47:43;;;;;;;4.00;1.98;;;8.00;99.90;;;;;;2075475;28;20017;-73
2023/03/26 03:48:48;;;;;;;4.25;2.03;;;8.00;99.90;;;;;;2088751;28;20032;-75
2023/03/26 03:49:50;;;;;;;4.35;1.70;;;8.00;99.90;;;;;;2085476;28;20032;-73
2023/03/26 03:50:52;;;;;;;4.05;1.75;;;7.90;99.90;;;;;;2079555;28;20087;-73
2023/03/26 03:51:58;;;;;;;4.60;1.85;;;7.90;99.90;;;;;;2080737;28;20130;-73
2023/03/26 03:53:05;;;;;;;3.63;1.80;;;8.00;99.90;;;;;;2079078;28;20021;-73
2023/03/26 03:54:07;;;;;;;3.97;1.80;;;8.00;99.90;;;;;;2087938;28;20445;-73
2023/03/26 03:55:28;;;;;;;4.57;1.80;;;8.00;99.90;;;;;;2077040;28;20039;-72
2023/03/26 03:56:29;;;;;;;5.22;1.92;;;7.90;99.90;;;;;;2086443;28;20041;-73
2023/03/26 03:57:51;;;;;;;4.07;1.90;;;8.00;99.90;;;;;;2086076;28;20087;-73
2023/03/26 03:58:53;;;;;;;5.32;1.65;;;7.90;99.90;;;;;;2078490;28;20111;-74
2023/03/26 04:00:07;;;;;;;4.10;1.70;;;8.00;99.90;;;;;;2088704;28;20024;-74
2023/03/26 04:01:16;;;;;;;4.88;1.80;;;7.90;99.90;;;;;;2088919;28;20512;-73
2023/03/26 04:02:33;;;;;;;3.95;1.80;;;7.90;99.90;;;;;;2079087;28;20025;-74
2023/03/26 04:03:37;;;;;;;5.45;2.03;;;7.90;99.90;;;;;;2082193;28;20561;-72
2023/03/26 04:04:45;;;;;;;5.40;1.92;;;7.90;99.90;;;;;;2079858;28;20109;-71
2023/03/26 04:05:53;;;;;;;4.32;1.73;;;7.80;99.90;;;;;;2086947;28;20054;-71
2023/03/26 04:06:55;;;;;;;4.13;1.73;;;7.80;99.90;;;;;;2088442;28;20016;-71
2023/03/26 04:07:58;;;;;;;4.43;1.85;;;7.80;99.90;;;;;;2080299;28;20033;-72
2023/03/26 04:09:02;;;;;;;6.03;2.08;;;7.80;99.90;;;;;;2069344;28;20037;-72
2023/03/26 04:10:05;;;;;;;3.50;1.80;;;7.80;99.90;;;;;;2084877;28;20028;-72
2023/03/26 04:11:26;;;;;;;3.35;1.60;;;7.80;99.90;;;;;;2090572;28;20097;-72
2023/03/26 04:12:44;;;;;;;4.30;1.80;;;7.70;99.90;;;;;;2086729;28;20036;-73
2023/03/26 04:13:49;;;;;;;4.60;1.95;;;7.70;99.90;;;;;;2078799;28;20468;-73
2023/03/26 04:15:14;;;;;;;4.78;1.95;;;7.70;99.90;;;;;;2083756;28;20053;-72
2023/03/26 04:16:16;;;;;;;4.82;2.10;;;7.80;99.90;;;;;;2078199;28;20052;-72
2023/03/26 04:17:20;;;;;;;3.75;2.13;;;7.80;99.90;;;;;;2078230;28;20162;-72
2023/03/26 04:18:22;;;;;;;5.43;2.03;;;7.80;99.90;;;;;;2069812;28;20117;-72
2023/03/26 04:19:23;;;;;;;5.65;2.05;;;7.80;99.90;;;;;;2067066;28;20033;-72
2023/03/26 04:20:25;;;;;;;4.20;1.92;;;7.80;99.90;;;;;;2079304;28;20526;-72
2023/03/26 04:21:29;;;;;;;3.33;1.90;;;7.80;99.90;;;;;;2077019;28;20044;-72
2023/03/26 04:22:35;;;;;;;4.13;2.22;;;7.80;99.90;;;;;;2077304;28;20612;-72
2023/03/26 04:23:38;;;;;;;3.88;2.00;;;7.90;99.90;;;;;;2083493;28;20043;-72
2023/03/26 04:25:12;;;;;;;5.80;2.00;;;7.90;99.90;;;;;;2063817;28;20107;-72
2023/03/26 04:26:22;;;;;;;4.93;2.20;;;7.90;99.90;;;;;;2080389;28;20044;-72
2023/03/26 04:27:42;;;;;;;5.32;2.33;;;7.90;99.90;;;;;;2079396;28;20025;-72
2023/03/26 04:28:54;;;;;;;5.28;2.10;;;7.90;99.90;;;;;;2086460;28;20099;-72
2023/03/26 04:30:00;;;;;;;4.78;2.05;;;7.90;99.90;;;;;;2087652;28;20095;-72
2023/03/26 04:31:05;;;;;;;5.63;2.00;;;7.90;99.90;;;;;;2086522;28;20031;-73
2023/03/26 04:32:25;;;;;;;4.97;2.10;;;7.90;99.90;;;;;;2078461;28;20056;-72
2023/03/26 04:33:31;;;;;;;4.60;2.20;;;7.90;99.90;;;;;;2073910;28;20044;-73
2023/03/26 04:34:33;;;;;;;4.43;1.90;;;8.00;99.90;;;;;;2078246;28;20036;-73
2023/03/26 04:35:51;;;;;;;3.97;1.90;;;8.00;99.90;;;;;;2080551;28;20304;-72
2023/03/26 04:36:53;;;;;;;4.47;2.00;;;8.00;99.90;;;;;;2079100;28;20036;-72
2023/03/26 04:37:57;;;;;;;4.93;1.85;;;8.10;99.90;;;;;;2077870;28;20347;-72
2023/03/26 04:39:08;;;;;;;6.65;2.25;;;8.10;99.90;;;;;;2077478;28;20025;-73
2023/03/26 04:40:36;;;;;;;5.70;2.10;;;8.10;99.90;;;;;;2089451;28;20043;-72
2023/03/26 04:41:45;;;;;;;3.58;1.95;;;8.10;99.90;;;;;;2083766;28;20032;-73
2023/03/26 04:42:53;;;;;;;4.32;1.90;;;8.10;99.90;;;;;;2080936;28;20020;-73
2023/03/26 04:44:15;;;;;;;4.13;1.90;;;8.20;99.90;;;;;;2091351;28;20029;-74
2023/03/26 04:45:24;;;;;;;6.55;2.20;;;8.20;99.90;;;;;;2084885;28;20049;-74
2023/03/26 04:46:33;;;;;;;5.13;1.90;;;8.20;99.90;;;;;;2074381;28;20025;-73
2023/03/26 04:47:45;;;;;;;5.65;2.20;;;8.20;99.90;;;;;;2078511;28;20075;-74
2023/03/26 04:48:45;;;;;;;4.32;1.70;;;8.20;99.90;;;;;;2085366;28;20035;-71
2023/03/26 04:49:47;;;;;;;3.70;1.80;;;8.20;99.90;;;;;;2087076;28;20033;-73
2023/03/26 04:50:49;;;;;;;4.20;2.00;;;8.20;99.90;;;;;;2070661;28;20029;-73
2023/03/26 04:51:52;;;;;;;3.58;1.70;;;8.20;99.90;;;;;;2074268;28;20071;-74
2023/03/26 04:53:32;;;;;;;5.45;2.10;;;8.20;99.90;;;;;;2089117;28;20133;-71
2023/03/26 04:54:58;;;;;;;6.95;1.90;;;8.20;99.90;;;;;;2083148;28;20144;-73
2023/03/26 04:56:15;;;;;;;5.30;2.00;;;8.20;99.90;;;;;;2082727;28;20086;-75
2023/03/26 04:57:38;;;;;;;6.80;2.10;;;8.20;99.90;;;;;;2090497;28;20036;-73
2023/03/26 04:58:49;;;;;;;5.40;2.05;;;8.20;99.90;;;;;;2086653;28;21235;-72
2023/03/26 04:59:50;;;;;;;6.03;1.98;;;8.20;99.90;;;;;;2080020;28;20029;-74
2023/03/26 05:00:51;;;;;;;6.75;2.20;;;8.20;99.90;;;;;;2073395;28;20041;-73
2023/03/26 05:01:53;;;;;;;6.43;2.10;;;8.20;99.90;;;;;;2088077;28;20028;-73
2023/03/26 05:02:58;;;;;;;6.80;2.17;;;8.20;99.90;;;;;;2084548;28;20058;-73
2023/03/26 05:03:58;;;;;;;6.97;1.90;;;8.20;99.90;;;;;;2075578;28;20381;-75
2023/03/26 05:05:01;;;;;;;7.30;2.22;;;8.20;99.90;;;;;;2082717;28;20113;-74
2023/03/26 05:06:04;;;;;;;4.53;2.10;;;8.20;99.90;;;;;;2084040;28;20025;-73
2023/03/26 05:07:06;;;;;;;5.90;2.30;;;8.20;99.90;;;;;;2077084;28;20116;-72
2023/03/26 05:08:13;;;;;;;6.22;2.17;;;8.20;99.90;;;;;;2084670;28;20025;-72
2023/03/26 05:09:14;;;;;;;4.60;1.90;;;8.20;99.90;;;;;;2074445;28;20037;-73
2023/03/26 05:10:35;;;;;;;5.95;2.00;;;8.20;99.90;;;;;;2056218;28;20124;-73
2023/03/26 05:11:47;;;;;;;4.38;1.95;;;8.20;99.90;;;;;;2077409;28;20041;-72
2023/03/26 05:12:48;;;;;;;6.07;2.28;;;8.20;99.90;;;;;;2078545;28;20041;-73
2023/03/26 05:13:56;;;;;;;5.75;2.15;;;8.20;99.90;;;;;;2077906;28;20024;-71
2023/03/26 05:14:57;;;;;;;7.72;2.28;;;8.30;99.90;;;;;;2076874;28;20083;-72
2023/03/26 05:16:13;;;;;;;3.45;2.00;;;8.30;99.90;;;;;;2083460;28;20021;-72
2023/03/26 05:17:22;;;;;;;4.57;2.10;;;8.30;99.90;;;;;;2077204;28;20032;-72
2023/03/26 05:18:23;;;;;;;6.93;1.83;;;8.30;99.90;;;;;;2087409;28;20025;-74
2023/03/26 05:19:27;;;;;;;5.13;2.00;;;8.30;99.90;;;;;;2087235;28;20430;-71
2023/03/26 05:20:29;;;;;;;4.47;1.98;;;8.30;99.90;;;;;;2087189;28;20147;-73
2023/03/26 05:21:30;;;;;;;7.95;2.40;;;8.30;99.90;;;;;;2094798;28;20530;-71
2023/03/26 05:22:30;;;;;;;5.05;2.05;;;8.30;99.90;;;;;;2090971;28;20028;-73
2023/03/26 05:23:51;;;;;;;;;;;8.30;99.90;;;;;;2085174;28;20036;-73
2023/03/26 05:24:53;;;;;;;5.80;2.00;;;8.40;99.90;;;;;;2086516;28;20426;-72
2023/03/26 05:25:54;;;;;;;6.45;2.10;;;8.30;99.90;;;;;;2079429;28;20021;-71
2023/03/26 05:26:57;;;;;;;4.68;2.00;;;8.30;99.90;;;;;;2069839;28;20036;-72
2023/03/26 05:27:59;;;;;;;8.57;2.30;;;8.30;99.90;;;;;;2075638;28;20482;-72
2023/03/26 05:29:07;;;;;;;6.50;2.20;;;8.30;99.90;;;;;;2072527;28;20500;-74
2023/03/26 05:30:15;;;;;;;7.22;2.05;;;8.30;99.90;;;;;;2076472;28;20021;-72
2023/03/26 05:31:20;;;;;;;7.53;1.90;;;8.30;99.90;;;;;;2077897;28;20048;-72
2023/03/26 05:32:22;;;;;;;4.38;2.00;;;8.20;99.90;;;;;;2076851;28;20053;-72
2023/03/26 05:33:25;;;;;;;5.03;2.00;;;8.20;99.90;;;;;;2076994;28;20491;-73
2023/03/26 05:34:40;;;;;;;5.40;2.00;;;8.20;99.90;;;;;;2083947;28;20024;-72
2023/03/26 05:35:42;;;;;;;5.25;1.90;;;8.20;99.90;;;;;;2084903;28;20120;-72
2023/03/26 05:36:43;;;;;;;5.95;2.10;;;8.20;99.90;;;;;;2068755;28;20444;-73
2023/03/26 05:38:05;;;;;;;;;;;8.20;99.90;;;;;;2082409;28;20044;-72
2023/03/26 05:39:05;;;;;;;7.88;2.13;;;8.20;99.90;;;;;;2082966;28;19913;-73
2023/03/26 05:40:24;;;;;;;4.20;1.80;;;8.10;99.90;;;;;;2087662;28;20820;-73
2023/03/26 05:41:29;;;;;;;4.10;1.90;;;8.10;99.90;;;;;;2084400;28;20273;-71
2023/03/26 05:42:30;;;;;;;4.63;2.03;;;8.10;99.90;;;;;;2084737;28;20029;-72
2023/03/26 05:43:43;;;;;;;5.80;2.25;;;8.00;99.90;;;;;;2084958;28;20087;-72
2023/03/26 05:44:51;;;;;;;6.88;2.40;;;8.00;99.90;;;;;;2085896;28;20092;-73
2023/03/26 05:45:58;;;;;;;5.70;2.13;;;8.00;99.90;;;;;;2084983;28;20520;-73
2023/03/26 05:47:02;;;;;;;5.72;2.10;;;8.00;99.90;;;;;;2077252;28;20516;-73
2023/03/26 05:48:03;;;;;;;5.03;1.90;;;8.00;99.90;;;;;;2088702;28;20601;-71
2023/03/26 05:49:04;;;;;;;6.18;2.10;;;8.10;99.90;;;;;;2078657;28;20029;-72
2023/03/26 05:50:09;;;;;;;6.15;2.20;;;8.00;99.90;;;;;;2079302;28;20029;-73
2023/03/26 05:51:14;;;;;;;7.03;2.17;;;8.10;99.90;;;;;;2080082;28;20072;-73
2023/03/26 05:52:19;;;;;;;5.13;2.10;;;8.10;99.90;;;;;;2081131;28;20605;-73